Monatstabelle

Bitte in den Auwahlmenüs den gewünschte Zeiraum wählen und die Schaltfläche "Anfrage absenden" betätigen. Beginn der Aufzeichnung ist 2007 - Dezember. Vor diesem Zeitraum sind keine Daten verfügbar.

2017 - Juli

 

Datum Temperatur (°C) Luftdruck (hPa) Luftfeuchte (%) Regen
(l/m²)
Wind (km/h)
avg: min: max: avg: min: max: avg: min: max: avg: max:
01.07.2017 18,1 14,6 25,3 1011,0 1006,6 1012,5 72 45 85 3,0 5,0 15,1
02.07.2017 18,2 11,6 21,2 1013,9 1012,1 1015,8 73 61 91 1,0 4,7 16,7
03.07.2017 18,7 14,0 22,5 1018,3 1015,6 1019,6 66 55 82 0,7 7,3 15,8
04.07.2017 20,6 11,9 26,0 1018,3 1017,5 1019,8 63 45 87 0,0 2,5 11,1
05.07.2017 23,5 13,7 31,7 1015,3 1013,9 1019,2 57 42 84 0,0 3,7 11,6
06.07.2017 24,6 16,3 30,5 1017,0 1015,0 1019,4 61 45 82 0,0 5,4 13,5
07.07.2017 24,3 16,2 30,1 1014,8 1013,4 1017,8 64 47 86 0,0 3,9 16,9
08.07.2017 24,7 17,7 32,5 1013,3 1011,1 1015,8 61 33 92 4,3 3,2 15,4
09.07.2017 22,1 18,6 31,5 1013,1 1012,1 1015,6 76 42 85 14,0 1,4 11,6
10.07.2017 24,7 17,1 32,4 1009,3 1007,5 1014,8 72 48 92 1,1 6,0 13,8
11.07.2017 21,6 18,0 29,9 1013,0 1008,3 1013,9 72 39 88 4,8 3,3 10,8
12.07.2017 22,0 16,3 31,1 1011,5 1009,0 1014,8 78 45 92 8,6 2,9 11,9
13.07.2017 19,5 13,5 24,4 1016,6 1011,3 1018,1 50 36 88 0,0 7,9 19,6
14.07.2017 17,5 9,5 23,5 1014,2 1012,4 1018,1 69 48 85 0,0 1,4 11,3
15.07.2017 15,3 12,3 19,7 1017,7 1013,4 1020,1 76 55 84 0,5 4,3 16,9
16.07.2017 17,7 10,1 24,1 1020,9 1020,0 1022,9 65 42 90 0,0 4,3 16,1
17.07.2017 21,8 11,3 28,8 1019,3 1018,1 1021,6 58 36 85 0,0 3,7 10,8
18.07.2017 24,2 14,9 30,9 1017,1 1015,6 1019,5 51 36 78 0,0 6,2 11,9
19.07.2017 22,3 16,3 32,5 1013,4 1011,8 1015,9 62 35 76 0,4 3,1 12,2
20.07.2017 24,3 13,9 33,1 1010,3 1008,8 1013,4 61 33 85 0,0 1,3 10,3
21.07.2017 23,7 16,4 29,7 1013,5 1012,2 1015,6 66 46 92 9,5 3,2 8,9
22.07.2017 22,3 17,8 30,1 1013,3 1011,6 1014,4 74 54 86 6,0 2,4 14,6
23.07.2017 22,6 17,5 28,3 1013,4 1012,7 1014,9 71 49 92 0,0 2,7 15,0
24.07.2017 18,5 16,5 22,5 1006,8 1004,1 1014,2 79 67 89 22,9 4,6 11,9
25.07.2017 17,4 13,3 22,9 1005,2 1004,4 1006,7 60 45 73 0,1 5,8 18,0
26.07.2017 16,7 12,8 21,3 1005,2 1004,0 1006,8 72 50 80 0,8 2,8 15,8
27.07.2017 16,2 13,8 19,1 1009,4 1006,8 1010,1 86 77 88 3,3 1,1 7,4
28.07.2017 20,8 15,1 28,3 1012,7 1009,6 1015,6 62 41 90 0,0 6,3 17,4
29.07.2017 21,8 12,9 29,1 1015,6 1014,5 1018,4 69 46 85 0,0 2,6 10,5
30.07.2017 23,7 15,6 32,3 1013,2 1011,4 1014,7 66 45 90 0,0 3,5 14,0
31.07.2017 25,6 16,9 32,7 1016,5 1013,4 1017,6 63 46 86 0,0 4,2 9,7
avg. 21,1 1013,6 67   ---
  Summe Regen: 81,1  
 
Min-Datum 14.07.2017 26.07.2017 08.07.2017 --- ---
Min-Zeit 05:14 08:56 16:56 --- ---
Minimum 9,5 1004,0 33 --- ---
 

Max-Datum

20.07.2017 16.07.2017 08.07.2017 24.07.2017 13.07.2017
Max-Zeit 14:58 09:36 07:34 13:30 13:42
Maximum 33,1 1022,9 92 22,9 19,6
 

 

  Letztes Jahr
gleiches Monat
Eistage max < 0°C 0 0
Frosttage min < 0°C 0 0
Sommertage max >=25°C 21 23
Heiße Tage max >=30°C 13 6

 

<<< nach oben >>>